Time;durP1;ratioP1;P1;durP2;ratioP2;P2;SDS_P1;SDS_P2;PMS_P1;PMS_P2;Temp;Humidity;BMP_temperature;BMP_pressure;BME280_temperature;BME280_humidity;BME280_pressure;Samples;Min_cycle;Max_cycle;Signal;HPM_P1;HPM_P2
2022/10/20 00:02:06;;;;;;;9.10;5.47;;;13.30;99.90;;;;;;6099785;23;20444;-86
2022/10/20 00:04:33;;;;;;;6.90;6.20;;;13.30;99.90;;;;;;6098789;23;20490;-87
2022/10/20 00:06:59;;;;;;;6.67;5.80;;;13.30;99.90;;;;;;6100012;23;20596;-85
2022/10/20 00:09:26;;;;;;;5.80;5.20;;;13.30;99.90;;;;;;6103156;23;20475;-86
2022/10/20 00:11:53;;;;;;;6.67;5.30;;;13.30;99.90;;;;;;6100508;23;20902;-85
2022/10/20 00:14:19;;;;;;;7.60;5.27;;;13.20;99.90;;;;;;6099593;23;20447;-87
2022/10/20 00:16:46;;;;;;;6.50;5.53;;;13.30;99.90;;;;;;6099503;23;20474;-86
2022/10/20 00:19:12;;;;;;;5.43;4.70;;;13.20;99.90;;;;;;6094011;23;20496;-86
2022/10/20 00:21:39;;;;;;;6.60;5.43;;;13.20;99.90;;;;;;6095101;23;20428;-83
2022/10/20 00:24:06;;;;;;;9.23;6.07;;;13.20;99.90;;;;;;6093793;23;20463;-85
2022/10/20 00:26:32;;;;;;;9.00;5.80;;;13.10;99.90;;;;;;6092897;23;20413;-82
2022/10/20 00:29:01;;;;;;;9.23;5.90;;;13.10;99.90;;;;;;6105724;23;20452;-84
2022/10/20 00:31:27;;;;;;;12.93;7.10;;;13.10;99.90;;;;;;6099531;23;20396;-84
2022/10/20 00:33:54;;;;;;;7.43;5.30;;;13.10;99.90;;;;;;6096708;23;20527;-86
2022/10/20 00:36:22;;;;;;;11.47;6.30;;;13.10;99.90;;;;;;6095914;23;20456;-85
2022/10/20 00:38:50;;;;;;;7.90;7.10;;;13.00;99.90;;;;;;6095936;23;20483;-84
2022/10/20 00:41:19;;;;;;;7.37;5.27;;;13.20;99.90;;;;;;6099430;23;20420;-85
2022/10/20 00:43:53;;;;;;;8.53;5.60;;;13.10;99.90;;;;;;6098895;23;20442;-86
2022/10/20 00:46:36;;;;;;;8.10;6.57;;;13.10;99.90;;;;;;6097307;23;20444;-86
2022/10/20 00:49:16;;;;;;;10.07;5.93;;;13.00;99.90;;;;;;6095163;23;20428;-85
2022/10/20 00:51:43;;;;;;;9.60;5.67;;;13.00;99.90;;;;;;6097833;23;20416;-87
2022/10/20 00:54:15;;;;;;;8.70;6.80;;;13.00;99.90;;;;;;6097370;23;20444;-87
2022/10/20 00:56:43;;;;;;;7.70;5.47;;;13.00;99.90;;;;;;6097786;23;20400;-87
2022/10/20 00:59:13;;;;;;;7.43;5.80;;;13.00;99.90;;;;;;6097694;23;20471;-87
2022/10/20 01:01:41;;;;;;;8.23;6.37;;;13.00;99.90;;;;;;6095493;23;20459;-86
2022/10/20 01:04:09;;;;;;;11.07;6.10;;;12.90;99.90;;;;;;6097527;23;20438;-86
2022/10/20 01:06:35;;;;;;;7.60;6.00;;;13.00;99.90;;;;;;6096903;23;20412;-86
2022/10/20 01:09:03;;;;;;;6.63;5.70;;;13.00;99.90;;;;;;6096634;23;20444;-85
2022/10/20 01:11:42;;;;;;;8.93;5.70;;;13.00;99.90;;;;;;6098760;23;20408;-85
2022/10/20 01:14:31;;;;;;;6.83;5.60;;;13.00;99.90;;;;;;6100870;23;21116;-86
2022/10/20 01:17:40;;;;;;;6.70;5.70;;;12.80;99.90;;;;;;6099149;23;20424;-86
2022/10/20 01:20:36;;;;;;;8.07;6.00;;;12.90;99.90;;;;;;6115725;23;20478;-85
2022/10/20 01:23:42;;;;;;;7.60;5.73;;;13.00;99.90;;;;;;5999339;23;20419;-87
2022/10/20 01:26:51;;;;;;;9.40;5.90;;;12.90;99.90;;;;;;6128006;23;20736;-86
2022/10/20 01:29:46;;;;;;;6.70;4.93;;;12.90;99.90;;;;;;6101818;23;20451;-85
2022/10/20 01:32:22;;;;;;;9.17;5.60;;;12.90;99.90;;;;;;6127473;23;20416;-86
2022/10/20 01:35:27;;;;;;;6.93;6.00;;;12.90;99.90;;;;;;6128810;23;20479;-84
2022/10/20 01:38:15;;;;;;;7.80;5.87;;;12.80;99.90;;;;;;6101698;23;20430;-86
2022/10/20 01:41:19;;;;;;;7.57;5.40;;;12.80;99.90;;;;;;6102413;23;20507;-85
2022/10/20 01:43:47;;;;;;;9.13;5.93;;;12.80;99.90;;;;;;6069155;23;20412;-85
2022/10/20 01:46:18;;;;;;;11.60;6.20;;;12.80;99.90;;;;;;6135721;23;20412;-86
2022/10/20 01:48:46;;;;;;;5.97;5.37;;;12.80;99.90;;;;;;6130524;23;20486;-86
2022/10/20 01:51:12;;;;;;;9.37;5.50;;;12.70;99.90;;;;;;6131230;23;20439;-86
2022/10/20 01:53:39;;;;;;;7.10;4.80;;;12.80;99.90;;;;;;6104586;23;20424;-84
2022/10/20 01:56:11;;;;;;;6.70;5.17;;;13.00;99.90;;;;;;6114673;23;20400;-84
2022/10/20 01:58:46;;;;;;;6.70;4.67;;;13.00;99.90;;;;;;6105179;23;20715;-84
2022/10/20 02:01:48;;;;;;;6.43;5.60;;;12.80;99.90;;;;;;6106775;23;20403;-85
2022/10/20 02:04:23;;;;;;;12.53;7.37;;;12.80;99.90;;;;;;6139132;23;20388;-85
2022/10/20 02:07:07;;;;;;;7.10;6.10;;;12.80;99.90;;;;;;6139587;23;20887;-86
2022/10/20 02:09:42;;;;;;;10.73;5.70;;;12.90;99.90;;;;;;6128972;23;20407;-85
2022/10/20 02:12:23;;;;;;;8.17;5.50;;;12.90;99.90;;;;;;6102901;23;20493;-85
2022/10/20 02:14:50;;;;;;;7.97;7.20;;;12.90;99.90;;;;;;6127941;23;20481;-86
2022/10/20 02:17:19;;;;;;;8.47;6.23;;;12.80;99.90;;;;;;6102387;23;20427;-86
2022/10/20 02:19:49;;;;;;;7.20;5.73;;;12.90;99.90;;;;;;6126450;23;20442;-86
2022/10/20 02:22:18;;;;;;;7.50;6.20;;;13.00;99.90;;;;;;6127790;23;20745;-84
2022/10/20 02:24:45;;;;;;;8.43;5.37;;;13.00;99.90;;;;;;6099986;23;20720;-84
2022/10/20 02:27:19;;;;;;;9.40;6.10;;;13.10;99.90;;;;;;6125313;23;20478;-84
2022/10/20 02:29:55;;;;;;;5.93;5.27;;;13.10;99.90;;;;;;6102420;23;20423;-84
2022/10/20 02:32:24;;;;;;;7.50;6.03;;;13.10;99.90;;;;;;6141757;23;20411;-86
2022/10/20 02:34:50;;;;;;;7.77;6.10;;;13.00;99.90;;;;;;6103021;23;20443;-85
2022/10/20 02:37:17;;;;;;;6.90;6.20;;;13.00;99.90;;;;;;6102150;23;20431;-85
2022/10/20 02:39:43;;;;;;;6.83;5.43;;;12.90;99.90;;;;;;6127015;23;20446;-86
2022/10/20 02:42:11;;;;;;;5.90;5.17;;;12.90;99.90;;;;;;6128291;23;20458;-85
2022/10/20 02:44:37;;;;;;;6.27;5.23;;;12.90;99.90;;;;;;6101604;23;20904;-86
2022/10/20 02:47:04;;;;;;;6.30;5.37;;;13.00;99.90;;;;;;6102273;23;20435;-85
2022/10/20 02:49:30;;;;;;;5.77;5.07;;;12.90;99.90;;;;;;6127672;23;20482;-86
2022/10/20 02:51:57;;;;;;;8.13;5.93;;;13.00;99.90;;;;;;6126738;23;20423;-86
2022/10/20 02:54:26;;;;;;;7.57;6.10;;;13.10;99.90;;;;;;6127150;23;20443;-86
2022/10/20 02:56:53;;;;;;;7.90;6.83;;;13.10;99.90;;;;;;6127618;23;20412;-85
2022/10/20 02:59:20;;;;;;;7.50;5.60;;;13.10;99.90;;;;;;6134629;23;20874;-85
2022/10/20 03:01:46;;;;;;;6.00;5.30;;;13.20;99.90;;;;;;6108171;23;20872;-87
2022/10/20 03:04:14;;;;;;;5.93;5.30;;;13.20;99.90;;;;;;6108432;23;21135;-85
2022/10/20 03:06:40;;;;;;;5.70;5.03;;;13.00;99.90;;;;;;6105179;23;20892;-86
2022/10/20 03:09:07;;;;;;;7.43;5.97;;;13.00;99.90;;;;;;6131197;23;20490;-85
2022/10/20 03:11:34;;;;;;;7.93;5.17;;;13.00;99.90;;;;;;6130614;23;20892;-86
2022/10/20 03:14:00;;;;;;;6.73;5.57;;;13.00;99.90;;;;;;6134788;23;20439;-86
2022/10/20 03:16:27;;;;;;;6.80;5.23;;;13.10;99.90;;;;;;6103114;23;20439;-87
2022/10/20 03:18:54;;;;;;;5.80;5.20;;;13.20;99.90;;;;;;6102247;23;20435;-86
2022/10/20 03:21:23;;;;;;;5.80;4.60;;;13.20;99.90;;;;;;6132172;23;20392;-84
2022/10/20 03:23:49;;;;;;;6.57;5.93;;;13.20;99.90;;;;;;6108845;23;20404;-86
2022/10/20 03:26:16;;;;;;;6.37;5.47;;;13.10;99.90;;;;;;6131922;23;20437;-84
2022/10/20 03:28:43;;;;;;;6.83;5.37;;;13.00;99.90;;;;;;6128762;23;20423;-86
2022/10/20 03:31:09;;;;;;;8.40;5.30;;;13.00;99.90;;;;;;6101772;23;20636;-86
2022/10/20 03:33:45;;;;;;;5.67;5.07;;;13.00;99.90;;;;;;6126903;23;20440;-85
2022/10/20 03:36:14;;;;;;;6.50;5.77;;;13.20;99.90;;;;;;6126950;23;20438;-86
2022/10/20 03:38:43;;;;;;;6.50;5.00;;;13.10;99.90;;;;;;6129279;23;20447;-86
2022/10/20 03:41:10;;;;;;;6.80;5.00;;;13.00;99.90;;;;;;6109165;23;20415;-86
2022/10/20 03:43:40;;;;;;;7.80;5.60;;;13.10;99.90;;;;;;6104223;23;20855;-87
2022/10/20 03:46:09;;;;;;;9.73;6.20;;;13.10;99.90;;;;;;6128060;23;20466;-85
2022/10/20 03:48:37;;;;;;;6.53;5.47;;;13.10;99.90;;;;;;6100831;23;20892;-87
2022/10/20 03:51:04;;;;;;;6.83;5.27;;;13.20;99.90;;;;;;6102239;23;20415;-87
2022/10/20 03:53:32;;;;;;;7.60;5.47;;;13.10;99.90;;;;;;6128385;23;20494;-87
2022/10/20 03:55:58;;;;;;;5.63;5.13;;;13.30;99.90;;;;;;6101460;23;20435;-87
2022/10/20 03:58:25;;;;;;;5.40;4.90;;;13.20;99.90;;;;;;6127835;23;20854;-86
2022/10/20 04:00:52;;;;;;;6.50;4.80;;;13.30;99.90;;;;;;6127910;23;20411;-87
2022/10/20 04:03:19;;;;;;;5.00;4.50;;;13.20;99.90;;;;;;6127413;23;20526;-84
2022/10/20 04:05:45;;;;;;;11.23;5.00;;;13.10;99.90;;;;;;6127786;23;20408;-87
2022/10/20 04:08:12;;;;;;;7.70;5.70;;;13.20;99.90;;;;;;6127474;23;20442;-85
2022/10/20 04:10:39;;;;;;;7.67;6.13;;;13.10;99.90;;;;;;6127984;23;20951;-86
2022/10/20 04:13:05;;;;;;;7.83;5.30;;;13.10;99.90;;;;;;6103021;23;20449;-86
2022/10/20 04:15:34;;;;;;;7.13;5.67;;;13.10;99.90;;;;;;6134318;23;20440;-86
2022/10/20 04:18:00;;;;;;;7.00;5.00;;;13.10;99.90;;;;;;6142662;23;20431;-84
2022/10/20 04:20:27;;;;;;;6.13;5.40;;;13.20;99.90;;;;;;6144798;23;20419;-84
2022/10/20 04:22:57;;;;;;;5.47;4.97;;;13.20;99.90;;;;;;6145126;23;20408;-84
2022/10/20 04:25:25;;;;;;;5.43;4.93;;;13.00;99.90;;;;;;6143835;23;20416;-84
2022/10/20 04:27:54;;;;;;;8.03;6.20;;;13.20;99.90;;;;;;6117787;23;20453;-84
2022/10/20 04:30:21;;;;;;;5.80;4.93;;;13.10;99.90;;;;;;6140314;23;20419;-85
2022/10/20 04:32:48;;;;;;;9.43;5.47;;;13.20;99.90;;;;;;6106878;23;20431;-86
2022/10/20 04:35:22;;;;;;;8.93;5.83;;;13.20;99.90;;;;;;6128535;23;20481;-86
2022/10/20 04:37:53;;;;;;;15.23;5.77;;;13.20;99.90;;;;;;6127670;23;20419;-86
2022/10/20 04:40:21;;;;;;;8.43;4.70;;;13.20;99.90;;;;;;6102670;23;20490;-85
2022/10/20 04:42:51;;;;;;;8.40;5.23;;;13.30;99.90;;;;;;6101999;23;20411;-86
2022/10/20 04:45:18;;;;;;;6.13;5.57;;;13.30;99.90;;;;;;6127492;23;20443;-87
2022/10/20 04:47:44;;;;;;;6.57;5.43;;;13.30;99.90;;;;;;6125857;23;20456;-84
2022/10/20 04:50:14;;;;;;;7.30;5.23;;;13.30;99.90;;;;;;6103403;23;20735;-86
2022/10/20 04:52:42;;;;;;;8.57;4.50;;;13.30;99.90;;;;;;6102077;23;20422;-88
2022/10/20 04:55:09;;;;;;;10.77;5.37;;;13.30;99.90;;;;;;6102105;23;20503;-86
2022/10/20 04:57:37;;;;;;;6.20;5.13;;;13.20;99.90;;;;;;6088700;23;20464;-85
2022/10/20 05:00:08;;;;;;;8.13;5.60;;;13.30;99.90;;;;;;6098101;23;20451;-88
2022/10/20 05:02:34;;;;;;;10.40;5.70;;;13.20;99.90;;;;;;6073698;23;20405;-86
2022/10/20 05:05:01;;;;;;;5.73;4.90;;;13.20;99.90;;;;;;6097775;23;20424;-85
2022/10/20 05:07:29;;;;;;;6.63;5.90;;;13.30;99.90;;;;;;6096729;23;20468;-85
2022/10/20 05:09:56;;;;;;;8.30;5.37;;;13.40;99.90;;;;;;6073341;23;20420;-85
2022/10/20 05:12:22;;;;;;;8.50;5.37;;;13.30;99.90;;;;;;6099011;23;20444;-85
2022/10/20 05:14:49;;;;;;;7.97;5.77;;;13.20;99.90;;;;;;6097599;23;20448;-85
2022/10/20 05:17:21;;;;;;;6.50;5.47;;;13.30;99.90;;;;;;6096935;23;20432;-84
2022/10/20 05:19:50;;;;;;;6.97;5.20;;;13.40;99.90;;;;;;6109548;23;20424;-84
2022/10/20 05:22:17;;;;;;;8.70;5.77;;;13.40;99.90;;;;;;6084373;23;20397;-84
2022/10/20 05:24:44;;;;;;;4.77;4.27;;;13.40;99.90;;;;;;6083608;23;20479;-86
2022/10/20 05:27:10;;;;;;;7.40;5.30;;;13.30;99.90;;;;;;6102863;23;20673;-86
2022/10/20 05:29:41;;;;;;;8.03;6.07;;;13.30;99.90;;;;;;6104870;23;20427;-87
2022/10/20 05:32:25;;;;;;;11.10;5.07;;;13.30;99.90;;;;;;6080271;23;20419;-86
2022/10/20 05:35:05;;;;;;;5.97;5.27;;;13.10;99.90;;;;;;6079897;23;20526;-87
2022/10/20 05:37:49;;;;;;;6.40;5.17;;;13.20;99.90;;;;;;6076216;23;20416;-85
2022/10/20 05:40:21;;;;;;;5.67;5.10;;;13.40;99.90;;;;;;6075786;23;20440;-87
2022/10/20 05:42:48;;;;;;;5.40;4.90;;;13.30;99.90;;;;;;6076518;23;20535;-86
2022/10/20 05:45:18;;;;;;;5.17;4.63;;;13.30;99.90;;;;;;6076829;23;20436;-87
2022/10/20 05:47:51;;;;;;;10.53;5.00;;;13.30;99.90;;;;;;6098854;23;20440;-85
2022/10/20 05:50:21;;;;;;;11.27;4.97;;;13.30;99.90;;;;;;6077579;23;20415;-84
2022/10/20 05:52:53;;;;;;;6.10;5.50;;;13.40;99.90;;;;;;6100757;23;20530;-84
2022/10/20 05:55:23;;;;;;;6.67;4.90;;;13.40;99.90;;;;;;6075171;23;20524;-84
2022/10/20 05:58:00;;;;;;;7.70;5.47;;;13.40;99.90;;;;;;6073709;23;20492;-85
2022/10/20 06:00:40;;;;;;;6.67;4.90;;;13.30;99.90;;;;;;6077672;23;20382;-86
2022/10/20 06:03:08;;;;;;;6.67;5.27;;;13.20;99.90;;;;;;6073181;23;20409;-86
2022/10/20 06:05:41;;;;;;;7.40;4.80;;;13.30;99.90;;;;;;6076342;23;20755;-86
2022/10/20 06:08:12;;;;;;;13.60;6.40;;;13.40;99.90;;;;;;6075383;23;20440;-87
2022/10/20 06:10:42;;;;;;;7.27;5.67;;;13.30;99.90;;;;;;6073953;23;20412;-86
2022/10/20 06:13:11;;;;;;;8.83;5.43;;;13.30;99.90;;;;;;6074944;23;20390;-87
2022/10/20 06:15:52;;;;;;;5.13;4.63;;;13.20;99.90;;;;;;6075740;23;20476;-88
2022/10/20 06:18:23;;;;;;;5.47;4.97;;;13.10;99.90;;;;;;6077176;23;20511;-87
2022/10/20 06:21:01;;;;;;;7.93;6.47;;;13.30;99.90;;;;;;6082255;23;20481;-85
2022/10/20 06:23:41;;;;;;;5.20;4.70;;;13.20;99.90;;;;;;6118889;23;20752;-86
2022/10/20 06:26:16;;;;;;;6.97;4.80;;;13.20;99.90;;;;;;6089928;23;20425;-87
2022/10/20 06:28:50;;;;;;;5.70;4.73;;;13.30;99.90;;;;;;6044899;23;20460;-86
2022/10/20 06:31:40;;;;;;;12.03;5.53;;;13.40;99.90;;;;;;6089234;23;20472;-86
2022/10/20 06:34:12;;;;;;;8.67;5.47;;;13.30;99.90;;;;;;6097541;23;20726;-85
2022/10/20 06:36:47;;;;;;;6.33;5.43;;;13.30;99.90;;;;;;6075591;23;20404;-85
2022/10/20 06:39:25;;;;;;;7.70;6.30;;;13.40;99.90;;;;;;6076243;23;20558;-85
2022/10/20 06:42:04;;;;;;;7.47;5.87;;;13.50;99.90;;;;;;6073143;23;20416;-85
2022/10/20 06:44:40;;;;;;;6.10;5.50;;;13.40;99.90;;;;;;6073605;23;20416;-86
2022/10/20 06:47:17;;;;;;;6.03;5.43;;;13.50;99.90;;;;;;6072146;23;20448;-86
2022/10/20 06:49:44;;;;;;;7.03;6.27;;;13.40;99.90;;;;;;6099145;23;20413;-86
2022/10/20 06:52:13;;;;;;;10.03;5.83;;;13.40;99.90;;;;;;6099538;23;20483;-86
2022/10/20 06:54:44;;;;;;;9.57;5.33;;;13.50;99.90;;;;;;6100770;23;20476;-87
2022/10/20 06:57:11;;;;;;;7.63;5.17;;;13.50;99.90;;;;;;6098391;23;21277;-85
2022/10/20 06:59:38;;;;;;;8.10;6.27;;;13.50;99.90;;;;;;6073223;23;20427;-85
2022/10/20 07:02:37;;;;;;;7.37;5.30;;;13.40;99.90;;;;;;6074249;23;20440;-85
2022/10/20 07:06:19;;;;;;;8.67;5.70;;;13.40;99.90;;;;;;6082160;23;20401;-84
2022/10/20 07:12:55;;;;;;;6.80;5.43;;;13.50;99.90;;;;;;6084394;23;20482;-84
2022/10/20 07:15:52;;;;;;;;;;;;;;;;;;;;;
2022/10/20 07:19:01;;;;;;;6.70;6.10;;;13.20;99.90;;;;;;6110058;23;20523;-83
2022/10/20 07:22:36;;;;;;;;;;;;;;;;;;;;;
2022/10/20 07:29:38;;;;;;;8.07;5.73;;;13.60;99.90;;;;;;6103000;23;20444;-83
2022/10/20 07:32:42;;;;;;;8.33;6.00;;;13.70;99.90;;;;;;6057384;23;20405;-83
2022/10/20 07:39:17;;;;;;;7.27;6.13;;;13.70;99.90;;;;;;6068692;23;20400;-83
2022/10/20 07:42:39;;;;;;;9.60;6.03;;;13.40;99.90;;;;;;6025128;23;20417;-83
2022/10/20 07:46:12;;;;;;;11.63;6.43;;;13.60;99.90;;;;;;6061739;23;20405;-83
2022/10/20 07:49:05;;;;;;;5.80;5.17;;;13.80;99.90;;;;;;5937771;23;20438;-83
2022/10/20 07:52:29;;;;;;;6.97;6.27;;;13.70;99.90;;;;;;6048087;23;20764;-83
2022/10/20 07:54:56;;;;;;;13.50;6.20;;;13.70;99.90;;;;;;6048946;23;20453;-82
2022/10/20 07:58:02;;;;;;;7.47;6.60;;;13.80;99.90;;;;;;6047645;23;20437;-81
2022/10/20 08:00:53;;;;;;;6.90;5.47;;;13.90;99.90;;;;;;5970426;24;20508;-81
2022/10/20 08:04:05;;;;;;;7.13;5.93;;;14.00;99.90;;;;;;6011071;23;20463;-82
2022/10/20 08:10:51;;;;;;;14.00;6.53;;;14.10;99.90;;;;;;5985152;23;20411;-81
2022/10/20 08:17:18;;;;;;;9.83;5.80;;;14.00;99.90;;;;;;5973030;23;20411;-82
2022/10/20 08:20:20;;;;;;;8.23;6.40;;;13.90;99.90;;;;;;5987937;24;20420;-84
2022/10/20 08:23:31;;;;;;;9.50;6.53;;;13.90;99.90;;;;;;5801410;24;20601;-83
2022/10/20 08:26:23;;;;;;;6.23;5.63;;;14.00;99.90;;;;;;5853591;24;20408;-83
2022/10/20 08:29:36;;;;;;;10.20;6.80;;;13.90;99.90;;;;;;5893426;24;20806;-83
2022/10/20 08:33:18;;;;;;;7.10;6.40;;;13.90;99.90;;;;;;5793121;24;20564;-82
2022/10/20 08:36:08;;;;;;;8.40;6.20;;;14.00;99.90;;;;;;5767120;24;20454;-81
2022/10/20 08:47:04;;;;;;;7.27;5.50;;;14.20;99.90;;;;;;6041162;23;20389;-82
2022/10/20 08:53:55;;;;;;;7.50;6.17;;;14.20;99.90;;;;;;6032165;23;20398;-85
2022/10/20 08:57:19;;;;;;;8.13;7.00;;;14.20;99.90;;;;;;6002313;23;20526;-84
2022/10/20 09:00:39;;;;;;;8.17;7.07;;;14.10;99.90;;;;;;6057178;23;20412;-85
2022/10/20 09:04:05;;;;;;;8.00;7.10;;;14.10;99.90;;;;;;6040868;23;20400;-84
2022/10/20 09:10:57;;;;;;;11.57;5.90;;;14.10;99.90;;;;;;5970143;23;20837;-85
2022/10/20 09:17:58;;;;;;;7.37;6.50;;;14.30;99.90;;;;;;6076038;23;21371;-83
2022/10/20 09:21:04;;;;;;;8.27;6.30;;;14.40;99.90;;;;;;6062646;23;20455;-84
2022/10/20 09:24:18;;;;;;;6.97;6.23;;;14.30;99.90;;;;;;6108243;23;20419;-84
2022/10/20 09:27:27;;;;;;;9.87;5.97;;;14.30;99.90;;;;;;6081471;23;20427;-84
2022/10/20 09:30:55;;;;;;;10.03;5.60;;;14.00;99.90;;;;;;6116156;23;20412;-83
2022/10/20 09:34:05;;;;;;;6.10;5.50;;;14.20;99.90;;;;;;5947207;24;20520;-84
2022/10/20 09:40:53;;;;;;;10.07;6.90;;;14.40;99.90;;;;;;5881452;24;20499;-85
2022/10/20 09:44:27;;;;;;;9.03;7.13;;;14.40;99.90;;;;;;5776003;24;20422;-84
2022/10/20 10:43:41;;;;;;;;;;;;;;;;;;;;;
2022/10/20 10:47:06;;;;;;;9.07;7.03;;;14.50;99.90;;;;;;6245406;23;20451;-85
2022/10/20 10:51:45;;;;;;;13.50;8.07;;;14.60;99.90;;;;;;6245693;22;20435;-84
2022/10/20 11:06:08;;;;;;;12.33;9.70;;;14.40;99.90;;;;;;6125327;23;20401;-85
2022/10/20 11:09:27;;;;;;;10.40;8.47;;;14.30;99.90;;;;;;6155303;23;20437;-85
2022/10/20 11:12:54;;;;;;;;;;;;;;;;;;;;;
2022/10/20 11:15:54;;;;;;;11.00;9.90;;;14.30;99.90;;;;;;6244842;22;20409;-85
2022/10/20 11:30:26;;;;;;;10.40;9.23;;;14.20;99.90;;;;;;6337053;22;20501;-84
2022/10/20 11:33:47;;;;;;;10.40;8.70;;;14.20;99.90;;;;;;6192250;23;20413;-85
2022/10/20 11:37:37;;;;;;;10.63;9.03;;;14.10;99.90;;;;;;6188036;23;20475;-86
2022/10/20 11:49:40;;;;;;;12.70;10.10;;;14.00;99.90;;;;;;5112384;27;20550;-86
2022/10/20 11:53:15;;;;;;;9.87;8.57;;;14.10;99.90;;;;;;5053318;28;20974;-85
2022/10/20 11:56:52;;;;;;;13.60;9.53;;;14.10;99.90;;;;;;5062172;28;21096;-84
2022/10/20 12:00:20;;;;;;;14.20;11.47;;;14.10;99.90;;;;;;5075352;28;21684;-85
2022/10/20 12:03:43;;;;;;;20.77;11.30;;;14.10;99.90;;;;;;5075634;28;20461;-85
2022/10/20 12:07:00;;;;;;;16.33;11.70;;;13.90;99.90;;;;;;4990829;28;20857;-85
2022/10/20 12:10:21;;;;;;;13.93;11.13;;;14.00;99.90;;;;;;4986257;28;20442;-85
2022/10/20 12:13:17;;;;;;;13.50;10.90;;;14.20;99.90;;;;;;4982203;28;20486;-84
2022/10/20 12:16:19;;;;;;;;;;;;;;;;;;;;;
2022/10/20 12:19:33;;;;;;;13.30;11.03;;;14.30;99.90;;;;;;4881838;29;20570;-85
2022/10/20 12:22:51;;;;;;;16.50;10.83;;;14.20;99.90;;;;;;4881316;29;21340;-84
2022/10/20 12:26:02;;;;;;;14.90;11.00;;;14.20;99.90;;;;;;4867065;29;21291;-84
2022/10/20 12:29:27;;;;;;;16.47;11.83;;;14.20;99.90;;;;;;4917269;28;21720;-86
2022/10/20 12:32:41;;;;;;;14.33;12.40;;;14.40;99.90;;;;;;4931798;28;20580;-86
2022/10/20 12:35:23;;;;;;;14.67;10.37;;;14.30;99.90;;;;;;4996283;28;21894;-85
2022/10/20 12:38:13;;;;;;;12.80;10.70;;;14.20;99.90;;;;;;4998739;28;20882;-85
2022/10/20 12:41:01;;;;;;;15.23;11.30;;;14.40;99.90;;;;;;4986425;28;20483;-86
2022/10/20 12:44:26;;;;;;;18.57;11.30;;;14.40;99.90;;;;;;5023507;28;20538;-87
2022/10/20 12:51:12;;;;;;;14.97;10.10;;;14.30;99.90;;;;;;5092258;28;21205;-86
2022/10/20 12:54:17;;;;;;;15.60;11.80;;;14.40;99.90;;;;;;5082900;28;20730;-88
2022/10/20 12:57:40;;;;;;;14.23;12.73;;;14.20;99.90;;;;;;5083278;28;20470;-87
2022/10/20 13:00:35;;;;;;;12.97;10.90;;;14.20;99.90;;;;;;5071171;28;21518;-85
2022/10/20 13:03:30;;;;;;;13.30;10.57;;;14.50;99.90;;;;;;5084413;28;20462;-87
2022/10/20 13:06:30;;;;;;;17.80;11.47;;;14.40;99.90;;;;;;5075846;28;20436;-86
2022/10/20 13:09:23;;;;;;;15.17;10.67;;;14.50;99.90;;;;;;5084967;28;20529;-86
2022/10/20 13:12:05;;;;;;;11.83;10.70;;;14.50;99.90;;;;;;5088759;28;20455;-87
2022/10/20 13:15:03;;;;;;;12.90;11.47;;;14.80;99.90;;;;;;5073092;28;21140;-85
2022/10/20 13:18:19;;;;;;;14.03;11.03;;;14.80;99.90;;;;;;5047038;28;21230;-86
2022/10/20 13:21:50;;;;;;;;;;;;;;;;;;;;;
2022/10/20 13:25:13;;;;;;;14.33;10.70;;;14.80;99.90;;;;;;5081230;28;20501;-86
2022/10/20 13:28:19;;;;;;;13.27;10.40;;;14.60;99.90;;;;;;5066575;28;20549;-85
2022/10/20 13:31:22;;;;;;;12.87;10.80;;;14.90;99.90;;;;;;4994000;28;20527;-86
2022/10/20 13:34:08;;;;;;;12.40;10.67;;;15.00;99.90;;;;;;4988134;28;20989;-86
2022/10/20 13:37:46;;;;;;;11.70;10.50;;;15.00;99.90;;;;;;5038308;22;20517;-85
2022/10/20 13:41:09;;;;;;;13.73;11.23;;;15.00;99.90;;;;;;4994388;28;20462;-87
2022/10/20 13:44:36;;;;;;;12.50;10.67;;;15.00;99.90;;;;;;5056222;28;20431;-86
2022/10/20 13:47:51;;;;;;;13.90;11.90;;;15.00;99.90;;;;;;5098470;28;20458;-85
2022/10/20 13:50:48;;;;;;;;;;;;;;;;;;;;;
2022/10/20 13:53:29;;;;;;;12.87;11.50;;;15.10;99.90;;;;;;5043095;28;20453;-84
2022/10/20 13:56:29;;;;;;;16.63;11.60;;;15.20;99.90;;;;;;5036040;28;20585;-84
2022/10/20 13:59:29;;;;;;;12.20;10.70;;;15.20;99.90;;;;;;5058913;28;20456;-87
2022/10/20 14:02:38;;;;;;;14.60;11.17;;;15.30;99.90;;;;;;4998279;28;20457;-85
2022/10/20 14:05:37;;;;;;;12.93;10.60;;;15.30;99.90;;;;;;5013441;28;20434;-84
2022/10/20 14:08:26;;;;;;;13.43;11.50;;;15.30;99.90;;;;;;4985720;28;20482;-88
2022/10/20 14:11:12;;;;;;;16.87;12.70;;;15.30;99.90;;;;;;4995014;28;20446;-85
2022/10/20 14:14:19;;;;;;;13.03;10.73;;;15.40;99.90;;;;;;4998693;28;20447;-88
2022/10/20 14:16:56;;;;;;;13.47;11.83;;;15.50;99.90;;;;;;5000406;28;20497;-85
2022/10/20 14:19:36;;;;;;;12.77;11.33;;;15.40;99.90;;;;;;4998596;28;20450;-85
2022/10/20 14:22:26;;;;;;;12.43;10.33;;;15.50;99.90;;;;;;4981288;28;20506;-86
2022/10/20 14:25:17;;;;;;;13.40;9.93;;;15.50;99.90;;;;;;5000240;28;22144;-83
2022/10/20 14:28:31;;;;;;;;;;;;;;;;;;;;;
2022/10/20 14:31:17;;;;;;;14.47;11.33;;;15.60;99.90;;;;;;4940498;29;20471;-85
2022/10/20 14:34:20;;;;;;;13.60;11.10;;;15.40;99.90;;;;;;4940840;29;22003;-85
2022/10/20 14:37:18;;;;;;;16.33;11.30;;;15.60;99.90;;;;;;4937684;28;20456;-85
2022/10/20 14:40:18;;;;;;;12.73;11.43;;;15.60;99.90;;;;;;4967102;28;20443;-85
2022/10/20 14:42:56;;;;;;;14.13;11.80;;;15.50;99.90;;;;;;4979644;28;20447;-84
2022/10/20 14:45:35;;;;;;;18.57;13.27;;;15.60;99.90;;;;;;4976693;28;20471;-83
2022/10/20 14:51:43;;;;;;;16.50;11.90;;;15.40;99.90;;;;;;5029772;28;20461;-85
2022/10/20 14:54:36;;;;;;;14.67;12.00;;;15.20;99.90;;;;;;5041597;28;20460;-86
2022/10/20 14:57:08;;;;;;;18.23;12.37;;;15.10;99.90;;;;;;5040018;28;20468;-85
2022/10/20 15:00:21;;;;;;;14.73;10.70;;;15.20;99.90;;;;;;5039714;28;21037;-85
2022/10/20 15:03:05;;;;;;;14.33;11.60;;;15.00;99.90;;;;;;5037394;28;21341;-86
2022/10/20 15:05:38;;;;;;;12.53;11.20;;;15.30;99.90;;;;;;5040487;28;20522;-85
2022/10/20 15:08:29;;;;;;;14.40;12.00;;;15.40;99.90;;;;;;5039623;28;20537;-86
2022/10/20 15:11:22;;;;;;;15.17;12.53;;;15.30;99.90;;;;;;5041611;28;20472;-85
2022/10/20 15:14:17;;;;;;;14.77;12.00;;;15.10;99.90;;;;;;4943700;28;20522;-85
2022/10/20 15:17:03;;;;;;;12.90;11.03;;;15.40;99.90;;;;;;4960693;28;20460;-85
2022/10/20 15:19:36;;;;;;;14.57;11.90;;;15.10;99.90;;;;;;4956790;28;20934;-87
2022/10/20 15:22:12;;;;;;;14.13;11.73;;;15.20;99.90;;;;;;4948606;28;20946;-85
2022/10/20 15:25:07;;;;;;;13.73;11.70;;;15.40;99.90;;;;;;4959839;28;20457;-86
2022/10/20 15:27:46;;;;;;;18.77;13.07;;;15.50;99.90;;;;;;4958085;28;20487;-86
2022/10/20 15:30:25;;;;;;;14.43;12.43;;;15.40;99.90;;;;;;4944718;28;20460;-86
2022/10/20 15:37:02;;;;;;;17.80;12.20;;;15.50;99.90;;;;;;4959190;28;20481;-85
2022/10/20 15:39:45;;;;;;;17.60;12.93;;;15.20;99.90;;;;;;4927360;29;20548;-86
2022/10/20 15:42:27;;;;;;;16.40;13.17;;;15.40;99.90;;;;;;4913125;29;20461;-85
2022/10/20 15:46:01;;;;;;;15.47;12.73;;;15.30;99.90;;;;;;4954250;28;20458;-85
2022/10/20 15:49:14;;;;;;;13.20;11.70;;;15.40;99.90;;;;;;4977663;28;20494;-85
2022/10/20 15:52:37;;;;;;;14.17;12.43;;;15.50;99.90;;;;;;4992244;28;20481;-86
2022/10/20 15:56:05;;;;;;;14.77;12.43;;;15.50;99.90;;;;;;5005731;28;20555;-84
2022/10/20 16:02:13;;;;;;;15.97;13.27;;;15.20;99.90;;;;;;4927492;28;21176;-82
2022/10/20 16:05:27;;;;;;;;;;;;;;;;;;;;;
2022/10/20 16:08:11;;;;;;;17.40;13.23;;;15.30;99.90;;;;;;4956145;28;20477;-83
2022/10/20 16:10:59;;;;;;;18.20;14.73;;;15.30;99.90;;;;;;4967039;28;20477;-84
2022/10/20 16:14:08;;;;;;;15.60;13.23;;;15.20;99.90;;;;;;5006313;28;20450;-83
2022/10/20 16:17:46;;;;;;;16.30;13.17;;;15.30;99.90;;;;;;4985953;28;20513;-84
2022/10/20 16:23:51;;;;;;;17.57;14.07;;;15.20;99.90;;;;;;4981425;28;20959;-82
2022/10/20 16:27:06;;;;;;;20.13;14.77;;;15.10;99.90;;;;;;5003073;28;20818;-84
2022/10/20 16:34:15;;;;;;;20.67;15.57;;;15.10;99.90;;;;;;4929225;28;20480;-83
2022/10/20 16:37:04;;;;;;;17.57;13.67;;;15.10;99.90;;;;;;5051598;28;20494;-82
2022/10/20 16:40:12;;;;;;;19.73;16.03;;;15.20;99.90;;;;;;5071263;28;20482;-83
2022/10/20 16:43:05;;;;;;;19.57;13.60;;;15.10;99.90;;;;;;5055753;28;20465;-82
2022/10/20 16:45:53;;;;;;;;;;;;;;;;;;;;;
2022/10/20 16:48:56;;;;;;;15.43;13.77;;;14.80;99.90;;;;;;5047607;28;20496;-83
2022/10/20 16:51:57;;;;;;;;;;;;;;;;;;;;;
2022/10/20 16:57:37;;;;;;;17.40;14.90;;;14.90;99.90;;;;;;5043213;28;20468;-82
2022/10/20 17:00:13;;;;;;;15.67;12.10;;;14.60;99.90;;;;;;5056820;28;20456;-82
2022/10/20 17:02:46;;;;;;;16.33;13.03;;;14.60;99.90;;;;;;5069711;28;20790;-84
2022/10/20 17:06:04;;;;;;;17.40;13.63;;;14.60;99.90;;;;;;5036509;28;20542;-83
2022/10/20 17:08:41;;;;;;;16.43;13.80;;;14.80;99.90;;;;;;5051099;28;20484;-82
2022/10/20 17:11:19;;;;;;;21.67;15.93;;;15.00;99.90;;;;;;5058114;28;20555;-84